Time;durP1;ratioP1;P1;durP2;ratioP2;P2;SDS_P1;SDS_P2;PMS_P1;PMS_P2;Temp;Humidity;BMP_temperature;BMP_pressure;BME280_temperature;BME280_humidity;BME280_pressure;Samples;Min_cycle;Max_cycle;Signal;HPM_P1;HPM_P2
2023/07/23 00:00:37;;;;;;;3.50;2.13;;;20.80;59.60;;;;;;5055467;28;20078;-81
2023/07/23 00:03:03;;;;;;;2.63;1.70;;;20.80;59.60;;;;;;5055719;28;20036;-82
2023/07/23 00:05:29;;;;;;;2.90;2.10;;;20.80;59.60;;;;;;5039233;28;20028;-81
2023/07/23 00:07:57;;;;;;;2.95;2.10;;;20.80;59.70;;;;;;5038730;28;20063;-82
2023/07/23 00:10:24;;;;;;;2.45;1.98;;;20.80;59.80;;;;;;5055338;28;20060;-82
2023/07/23 00:12:50;;;;;;;2.67;1.92;;;20.70;59.70;;;;;;5039173;28;20086;-80
2023/07/23 00:15:16;;;;;;;2.60;2.00;;;20.70;59.70;;;;;;5056142;28;20123;-80
2023/07/23 00:17:42;;;;;;;3.22;1.90;;;20.70;59.80;;;;;;5042550;28;20036;-81
2023/07/23 00:20:09;;;;;;;2.67;1.90;;;20.70;59.80;;;;;;5059386;28;20370;-82
2023/07/23 00:22:38;;;;;;;3.03;2.00;;;20.70;59.80;;;;;;5042979;28;20033;-81
2023/07/23 00:25:05;;;;;;;2.63;2.00;;;20.70;59.80;;;;;;5059402;28;20047;-81
2023/07/23 00:27:31;;;;;;;2.85;1.90;;;20.70;59.80;;;;;;5059537;28;20029;-81
2023/07/23 00:29:57;;;;;;;3.15;1.85;;;20.60;59.70;;;;;;5059025;28;20028;-81
2023/07/23 00:32:23;;;;;;;2.70;2.00;;;20.60;59.80;;;;;;5042237;28;20033;-81
2023/07/23 00:34:49;;;;;;;2.65;1.67;;;20.60;59.80;;;;;;5076521;28;20142;-81
2023/07/23 00:37:15;;;;;;;3.45;1.92;;;20.60;59.90;;;;;;5042934;28;20098;-82
2023/07/23 00:39:41;;;;;;;3.75;2.08;;;20.60;60.00;;;;;;5058973;28;20036;-81
2023/07/23 00:42:07;;;;;;;2.92;1.88;;;20.60;60.00;;;;;;5076338;28;20033;-82
2023/07/23 00:44:33;;;;;;;2.95;2.10;;;20.50;59.90;;;;;;5042028;28;20132;-83
2023/07/23 00:47:02;;;;;;;3.17;2.10;;;20.50;60.00;;;;;;5042773;28;20495;-81
2023/07/23 00:49:29;;;;;;;3.25;1.83;;;20.50;60.00;;;;;;5058942;28;20039;-81
2023/07/23 00:51:55;;;;;;;3.60;2.22;;;20.50;60.00;;;;;;5041971;28;20119;-82
2023/07/23 00:54:21;;;;;;;3.47;2.30;;;20.50;60.00;;;;;;5076206;28;20457;-82
2023/07/23 00:56:48;;;;;;;2.92;1.92;;;20.50;60.00;;;;;;5041876;28;20040;-81
2023/07/23 00:59:14;;;;;;;3.20;2.03;;;20.50;60.10;;;;;;5042019;28;20028;-81
2023/07/23 01:01:40;;;;;;;2.78;1.80;;;20.50;60.10;;;;;;5058539;28;20031;-79
2023/07/23 01:04:06;;;;;;;3.45;2.30;;;20.40;60.00;;;;;;5076850;28;20036;-81
2023/07/23 01:06:37;;;;;;;3.38;2.15;;;20.50;60.10;;;;;;5075983;28;20033;-81
2023/07/23 01:09:04;;;;;;;3.30;2.10;;;20.40;60.20;;;;;;5041978;28;20032;-81
2023/07/23 01:11:32;;;;;;;3.22;1.92;;;20.40;60.20;;;;;;5041999;28;20024;-81
2023/07/23 01:14:01;;;;;;;2.67;2.10;;;20.40;60.20;;;;;;5041916;28;20109;-83
2023/07/23 01:16:29;;;;;;;3.60;2.30;;;20.40;60.30;;;;;;5041660;28;20032;-81
2023/07/23 01:18:56;;;;;;;3.15;2.20;;;20.40;60.30;;;;;;5041791;28;20037;-81
2023/07/23 01:21:24;;;;;;;3.85;2.03;;;20.30;60.30;;;;;;5041148;28;20025;-81
2023/07/23 01:23:50;;;;;;;3.03;2.17;;;20.30;60.30;;;;;;5041599;28;20105;-82
2023/07/23 01:26:17;;;;;;;3.72;1.98;;;20.30;60.40;;;;;;5041362;28;20393;-83
2023/07/23 01:28:42;;;;;;;2.55;2.05;;;20.30;60.40;;;;;;5041798;28;20139;-82
2023/07/23 01:31:12;;;;;;;4.43;2.45;;;20.30;60.40;;;;;;5041439;28;20060;-81
2023/07/23 01:33:39;;;;;;;3.38;2.10;;;20.30;60.50;;;;;;5041313;28;20032;-81
2023/07/23 01:36:05;;;;;;;2.85;2.17;;;20.30;60.50;;;;;;5040981;28;20038;-81
2023/07/23 01:38:31;;;;;;;2.45;1.67;;;20.30;60.60;;;;;;5075623;28;20132;-85
2023/07/23 01:40:57;;;;;;;2.33;1.73;;;20.30;60.50;;;;;;5075645;28;20492;-80
2023/07/23 01:43:24;;;;;;;3.25;2.10;;;20.20;60.50;;;;;;5041333;28;20461;-79
2023/07/23 01:45:50;;;;;;;3.58;2.13;;;20.20;60.60;;;;;;5057626;28;20032;-81
2023/07/23 01:48:16;;;;;;;3.00;1.90;;;20.20;60.60;;;;;;5073994;28;20036;-81
2023/07/23 01:50:42;;;;;;;2.85;1.80;;;20.20;60.60;;;;;;5057325;28;20123;-81
2023/07/23 01:53:08;;;;;;;3.42;2.30;;;20.20;60.60;;;;;;5057306;28;20141;-81
2023/07/23 01:55:34;;;;;;;3.40;2.25;;;20.20;60.70;;;;;;5056977;28;20060;-81
2023/07/23 01:58:00;;;;;;;3.10;2.20;;;20.20;60.70;;;;;;5040559;28;20048;-80
2023/07/23 02:00:29;;;;;;;3.08;1.95;;;20.20;60.70;;;;;;5073910;28;20477;-81
2023/07/23 02:02:55;;;;;;;3.50;2.10;;;20.20;60.70;;;;;;5057916;28;20563;-81
2023/07/23 02:05:23;;;;;;;3.55;2.20;;;20.10;60.70;;;;;;5057954;28;20033;-81
2023/07/23 02:07:49;;;;;;;3.20;2.10;;;20.10;60.70;;;;;;5021420;28;20049;-81
2023/07/23 02:10:20;;;;;;;3.30;2.10;;;20.10;60.80;;;;;;5020807;28;20106;-82
2023/07/23 02:12:46;;;;;;;3.35;2.28;;;20.10;60.80;;;;;;5037594;28;20025;-81
2023/07/23 02:15:12;;;;;;;2.83;1.90;;;20.10;60.80;;;;;;5037361;28;20031;-81
2023/07/23 02:17:39;;;;;;;3.25;2.10;;;20.10;60.80;;;;;;5053385;28;20029;-82
2023/07/23 02:20:06;;;;;;;3.50;2.00;;;20.10;60.80;;;;;;5037253;28;20044;-81
2023/07/23 02:22:32;;;;;;;3.03;1.92;;;20.10;60.90;;;;;;5020918;28;20029;-81
2023/07/23 02:24:58;;;;;;;3.58;2.28;;;20.10;60.90;;;;;;5036886;28;20037;-81
2023/07/23 02:27:24;;;;;;;2.58;2.05;;;20.00;60.90;;;;;;5036513;28;20044;-81
2023/07/23 02:29:49;;;;;;;3.20;2.15;;;20.00;60.90;;;;;;5053630;28;20040;-81
2023/07/23 02:32:15;;;;;;;3.00;2.28;;;20.00;60.90;;;;;;5021045;28;20545;-81
2023/07/23 02:34:41;;;;;;;2.58;1.98;;;20.00;61.00;;;;;;5036766;28;20060;-82
2023/07/23 02:37:07;;;;;;;3.25;1.95;;;20.00;60.90;;;;;;5020111;28;20033;-81
2023/07/23 02:39:32;;;;;;;2.58;1.83;;;20.00;61.00;;;;;;5036249;28;20072;-82
2023/07/23 02:42:00;;;;;;;2.95;2.10;;;20.00;61.00;;;;;;5036868;28;20486;-80
2023/07/23 02:44:26;;;;;;;3.25;2.22;;;20.00;61.00;;;;;;5036758;28;20112;-82
2023/07/23 02:46:52;;;;;;;3.22;2.15;;;20.00;61.00;;;;;;5020021;28;20040;-84
2023/07/23 02:49:17;;;;;;;3.20;2.00;;;20.00;61.00;;;;;;5052994;28;20021;-82
2023/07/23 02:51:43;;;;;;;3.15;2.00;;;20.00;61.00;;;;;;5035928;28;20033;-82
2023/07/23 02:54:09;;;;;;;3.00;2.08;;;19.90;61.00;;;;;;5036510;28;20124;-82
2023/07/23 02:56:35;;;;;;;2.85;2.00;;;19.90;61.10;;;;;;5036675;28;20056;-82
2023/07/23 02:59:03;;;;;;;2.97;2.30;;;19.90;61.10;;;;;;5036155;28;20041;-82
2023/07/23 03:01:30;;;;;;;2.90;2.00;;;19.90;61.10;;;;;;5037015;28;20037;-81
2023/07/23 03:03:56;;;;;;;3.15;2.13;;;19.90;61.20;;;;;;5036358;28;20032;-82
2023/07/23 03:06:22;;;;;;;2.42;1.67;;;19.90;61.20;;;;;;5036354;28;20035;-81
2023/07/23 03:08:48;;;;;;;3.15;2.22;;;19.90;61.20;;;;;;5056320;28;20387;-81
2023/07/23 03:11:13;;;;;;;4.85;2.40;;;19.90;61.20;;;;;;5023712;28;20377;-82
2023/07/23 03:13:39;;;;;;;3.00;2.13;;;19.80;61.20;;;;;;5039183;28;20491;-82
2023/07/23 03:16:05;;;;;;;3.60;2.28;;;19.90;61.30;;;;;;5039575;28;20040;-82
2023/07/23 03:18:31;;;;;;;2.55;1.98;;;19.90;61.30;;;;;;5056060;28;20048;-82
2023/07/23 03:20:56;;;;;;;4.28;2.42;;;19.80;61.20;;;;;;5055888;28;20066;-83
2023/07/23 03:23:22;;;;;;;3.00;2.17;;;19.80;61.30;;;;;;5072820;28;20032;-81
2023/07/23 03:25:48;;;;;;;2.83;2.00;;;19.80;61.30;;;;;;5055851;28;20174;-83
2023/07/23 03:28:14;;;;;;;2.70;2.25;;;19.80;61.30;;;;;;5039137;28;20047;-81
2023/07/23 03:30:39;;;;;;;2.97;2.00;;;19.80;61.40;;;;;;5039384;28;20036;-83
2023/07/23 03:33:05;;;;;;;2.70;2.10;;;19.80;61.40;;;;;;5022486;28;20037;-82
2023/07/23 03:35:32;;;;;;;3.08;2.20;;;19.80;61.40;;;;;;5039659;28;20037;-80
2023/07/23 03:37:58;;;;;;;3.65;2.13;;;19.80;61.40;;;;;;5039069;28;20036;-81
2023/07/23 03:40:24;;;;;;;3.10;1.90;;;19.80;61.40;;;;;;5055680;28;20535;-80
2023/07/23 03:42:49;;;;;;;2.80;1.90;;;19.70;61.30;;;;;;5055947;28;20361;-80
2023/07/23 03:45:15;;;;;;;2.55;1.85;;;19.70;61.30;;;;;;5006363;28;20060;-81
2023/07/23 03:47:42;;;;;;;3.78;2.10;;;19.80;61.40;;;;;;5039169;28;20033;-80
2023/07/23 03:50:08;;;;;;;2.92;1.83;;;19.80;61.50;;;;;;5040377;28;20054;-81
2023/07/23 03:52:34;;;;;;;3.75;2.03;;;19.80;61.50;;;;;;5043229;28;20028;-81
2023/07/23 03:55:00;;;;;;;2.95;2.10;;;19.70;61.40;;;;;;5043504;28;20373;-81
2023/07/23 03:57:26;;;;;;;2.28;1.70;;;19.70;61.50;;;;;;5059576;28;20036;-81
2023/07/23 03:59:52;;;;;;;2.65;1.85;;;19.70;61.50;;;;;;5042908;28;20481;-81
2023/07/23 04:02:17;;;;;;;2.65;1.75;;;19.70;61.60;;;;;;5060076;28;20477;-81
2023/07/23 04:04:43;;;;;;;3.33;1.95;;;19.70;61.60;;;;;;5043117;28;20496;-80
2023/07/23 04:07:09;;;;;;;2.38;1.77;;;19.70;61.60;;;;;;5056549;28;20454;-84
2023/07/23 04:09:35;;;;;;;2.97;2.00;;;19.70;61.60;;;;;;5040636;28;20361;-81
2023/07/23 04:12:01;;;;;;;3.03;2.10;;;19.70;61.60;;;;;;5039613;28;20036;-81
2023/07/23 04:14:27;;;;;;;2.45;1.80;;;19.60;62.00;;;;;;5056231;28;20033;-81
2023/07/23 04:16:54;;;;;;;2.40;1.77;;;19.60;61.60;;;;;;5056450;28;20033;-81
2023/07/23 04:19:20;;;;;;;2.80;1.90;;;19.70;61.70;;;;;;5038670;28;20037;-83
2023/07/23 04:21:45;;;;;;;2.95;1.88;;;19.60;61.60;;;;;;5055846;28;20064;-81
2023/07/23 04:24:11;;;;;;;2.58;1.90;;;19.60;61.60;;;;;;5055836;28;20056;-79
2023/07/23 04:26:37;;;;;;;2.38;1.83;;;19.60;61.70;;;;;;5040065;28;20037;-81
2023/07/23 04:29:03;;;;;;;3.00;2.05;;;19.60;61.70;;;;;;5039100;28;20032;-81
2023/07/23 04:31:31;;;;;;;2.20;1.75;;;19.60;61.70;;;;;;5056224;28;20091;-81
2023/07/23 04:33:57;;;;;;;2.92;2.10;;;19.60;61.70;;;;;;5039021;28;20450;-80
2023/07/23 04:36:23;;;;;;;2.72;1.88;;;19.60;61.70;;;;;;5038649;28;20040;-81
2023/07/23 04:38:49;;;;;;;3.13;1.95;;;19.60;61.70;;;;;;5039082;28;20124;-82
2023/07/23 04:41:15;;;;;;;2.05;1.65;;;19.60;61.70;;;;;;5038932;28;20092;-80
2023/07/23 04:43:41;;;;;;;2.35;1.67;;;19.50;61.70;;;;;;5039058;28;20056;-79
2023/07/23 04:46:07;;;;;;;3.30;2.17;;;19.60;61.70;;;;;;5039158;28;20091;-80
2023/07/23 04:48:34;;;;;;;2.55;1.88;;;19.50;61.70;;;;;;5056901;28;20136;-83
2023/07/23 04:51:02;;;;;;;3.03;1.88;;;19.50;61.60;;;;;;5022439;28;20056;-80
2023/07/23 04:53:28;;;;;;;3.00;2.20;;;19.60;61.70;;;;;;5056233;28;20485;-82
2023/07/23 04:55:57;;;;;;;2.47;1.90;;;19.60;61.70;;;;;;5055516;28;20025;-80
2023/07/23 04:58:24;;;;;;;4.80;2.00;;;19.50;61.70;;;;;;5055156;28;20170;-81
2023/07/23 05:00:50;;;;;;;3.22;2.05;;;19.50;61.60;;;;;;5055150;28;20029;-81
2023/07/23 05:03:16;;;;;;;1.80;1.55;;;19.50;61.60;;;;;;5055752;28;20528;-81
2023/07/23 05:05:45;;;;;;;2.88;1.92;;;19.50;61.60;;;;;;5055843;28;20057;-81
2023/07/23 05:08:11;;;;;;;2.78;2.10;;;19.50;61.60;;;;;;5038431;28;20485;-80
2023/07/23 05:10:38;;;;;;;2.70;1.73;;;19.50;61.50;;;;;;5055145;28;20025;-81
2023/07/23 05:13:04;;;;;;;3.35;2.00;;;19.50;61.50;;;;;;5054806;28;20513;-81
2023/07/23 05:15:30;;;;;;;2.05;1.77;;;19.50;61.50;;;;;;5038270;28;20029;-81
2023/07/23 05:17:55;;;;;;;2.78;1.77;;;19.50;61.50;;;;;;5054568;28;20033;-82
2023/07/23 05:20:21;;;;;;;2.40;1.80;;;19.50;61.50;;;;;;5038060;28;20451;-81
2023/07/23 05:22:47;;;;;;;3.15;1.90;;;19.50;61.50;;;;;;5038095;28;20535;-81
2023/07/23 05:25:12;;;;;;;2.67;2.00;;;19.50;61.50;;;;;;5054723;28;20069;-81
2023/07/23 05:27:39;;;;;;;3.17;2.10;;;19.50;61.50;;;;;;5038152;28;20116;-82
2023/07/23 05:30:05;;;;;;;2.60;1.90;;;19.50;61.50;;;;;;5037635;28;20025;-81
2023/07/23 05:32:32;;;;;;;3.10;2.13;;;19.50;61.50;;;;;;5055222;28;20385;-81
2023/07/23 05:34:58;;;;;;;2.22;1.80;;;19.50;61.50;;;;;;5054491;28;20029;-81
2023/07/23 05:37:24;;;;;;;2.42;1.80;;;19.50;61.50;;;;;;5055625;28;20548;-82
2023/07/23 05:39:52;;;;;;;2.58;1.67;;;19.50;61.50;;;;;;5021797;28;20078;-81
2023/07/23 05:42:17;;;;;;;3.13;1.95;;;19.50;61.50;;;;;;5005551;28;20033;-82
2023/07/23 05:44:43;;;;;;;2.58;1.80;;;19.50;61.50;;;;;;5038048;28;20037;-81
2023/07/23 05:47:09;;;;;;;2.25;1.75;;;19.50;61.40;;;;;;5054412;28;20040;-81
2023/07/23 05:49:35;;;;;;;3.97;1.90;;;19.50;61.40;;;;;;5037678;28;20045;-82
2023/07/23 05:52:01;;;;;;;3.00;2.10;;;19.50;61.50;;;;;;5037440;28;20549;-80
2023/07/23 05:54:27;;;;;;;2.63;1.90;;;19.50;61.40;;;;;;5054039;28;20039;-84
2023/07/23 05:56:52;;;;;;;2.42;1.75;;;19.50;61.40;;;;;;5037293;28;20032;-80
2023/07/23 05:59:18;;;;;;;2.63;1.92;;;19.50;61.40;;;;;;5054046;28;20049;-80
2023/07/23 06:01:44;;;;;;;1.92;1.63;;;19.50;61.40;;;;;;5055542;28;20496;-81
2023/07/23 06:04:10;;;;;;;3.45;2.15;;;19.50;61.40;;;;;;5020943;28;20103;-80
2023/07/23 06:06:36;;;;;;;3.55;2.20;;;19.50;61.40;;;;;;5039166;28;20029;-82
2023/07/23 06:09:03;;;;;;;2.67;2.00;;;19.60;61.50;;;;;;5040863;28;20052;-81
2023/07/23 06:11:30;;;;;;;3.28;2.20;;;19.50;61.40;;;;;;5057919;28;20032;-81
2023/07/23 06:13:57;;;;;;;2.03;1.80;;;19.50;61.40;;;;;;5056217;28;20040;-81
2023/07/23 06:16:23;;;;;;;2.42;1.75;;;19.50;61.40;;;;;;5040459;28;20037;-81
2023/07/23 06:18:49;;;;;;;2.90;2.00;;;19.60;61.40;;;;;;5040203;28;20171;-82
2023/07/23 06:21:15;;;;;;;2.75;1.73;;;19.60;61.40;;;;;;5024071;28;20033;-82
2023/07/23 06:23:40;;;;;;;2.80;1.83;;;19.60;61.40;;;;;;5057608;28;20384;-80
2023/07/23 06:26:06;;;;;;;2.83;1.75;;;19.60;61.40;;;;;;5040493;28;20032;-81
2023/07/23 06:28:32;;;;;;;2.30;1.80;;;19.60;61.40;;;;;;5023873;28;20071;-82
2023/07/23 06:30:58;;;;;;;2.03;1.67;;;19.60;61.40;;;;;;5056587;28;20043;-81
2023/07/23 06:33:24;;;;;;;2.17;1.77;;;19.60;61.40;;;;;;5040415;28;20036;-80
2023/07/23 06:35:49;;;;;;;3.22;2.00;;;19.60;61.40;;;;;;5039956;28;20489;-81
2023/07/23 06:38:15;;;;;;;2.17;1.85;;;19.60;61.30;;;;;;5057415;28;20476;-80
2023/07/23 06:40:49;;;;;;;1.95;1.65;;;19.60;61.40;;;;;;5056839;28;20037;-82
2023/07/23 06:43:16;;;;;;;2.40;1.85;;;19.60;61.40;;;;;;5056212;28;20032;-81
2023/07/23 06:45:46;;;;;;;2.28;1.83;;;19.60;61.30;;;;;;5039855;28;20032;-83
2023/07/23 06:48:14;;;;;;;2.08;1.70;;;19.70;61.40;;;;;;5056052;28;20036;-81
2023/07/23 06:50:40;;;;;;;2.30;1.90;;;19.60;61.40;;;;;;5056686;28;20028;-80
2023/07/23 06:53:06;;;;;;;2.25;1.80;;;19.60;61.40;;;;;;5074805;28;20024;-81
2023/07/23 06:55:55;;;;;;;2.15;1.67;;;19.60;62.00;;;;;;5056735;28;20032;-82
2023/07/23 06:58:21;;;;;;;2.45;1.88;;;19.70;61.40;;;;;;5039297;28;20093;-83
2023/07/23 07:00:46;;;;;;;2.10;1.80;;;19.70;61.40;;;;;;5039581;28;20428;-81
2023/07/23 07:03:12;;;;;;;1.90;1.60;;;19.70;61.40;;;;;;5039528;28;20031;-81
2023/07/23 07:05:38;;;;;;;2.53;1.85;;;19.70;61.40;;;;;;5056490;28;20049;-82
2023/07/23 07:08:04;;;;;;;2.67;1.98;;;19.70;61.40;;;;;;5055541;28;20052;-82
2023/07/23 07:10:30;;;;;;;2.25;1.67;;;19.70;61.40;;;;;;5074514;28;20024;-84
2023/07/23 07:12:56;;;;;;;2.10;1.75;;;19.70;61.40;;;;;;5056134;28;20119;-82
2023/07/23 07:15:21;;;;;;;2.83;1.90;;;19.70;61.40;;;;;;5055892;28;20033;-82
2023/07/23 07:17:47;;;;;;;2.58;1.80;;;19.70;61.40;;;;;;5056311;28;20498;-82
2023/07/23 07:20:13;;;;;;;3.35;1.85;;;19.70;61.40;;;;;;5056036;28;20451;-82
2023/07/23 07:22:39;;;;;;;2.25;1.73;;;19.70;61.40;;;;;;5056313;28;20025;-83
2023/07/23 07:25:05;;;;;;;2.13;1.77;;;19.70;61.40;;;;;;5039431;28;20060;-83
2023/07/23 07:27:31;;;;;;;2.30;1.77;;;19.70;62.10;;;;;;5056680;28;20078;-82
2023/07/23 07:29:57;;;;;;;2.45;1.52;;;19.70;61.40;;;;;;5039371;28;20036;-82
2023/07/23 07:32:22;;;;;;;2.67;1.90;;;19.70;61.50;;;;;;5039520;28;20039;-82
2023/07/23 07:34:48;;;;;;;2.22;1.65;;;19.70;61.50;;;;;;5039107;28;20032;-82
2023/07/23 07:37:14;;;;;;;2.42;1.85;;;19.70;61.50;;;;;;5055484;28;20025;-84
2023/07/23 07:39:40;;;;;;;2.47;1.90;;;19.80;61.60;;;;;;5055438;28;20037;-84
2023/07/23 07:42:07;;;;;;;2.67;1.90;;;19.70;62.20;;;;;;5039888;28;20024;-84
2023/07/23 07:44:33;;;;;;;2.00;1.70;;;19.80;61.60;;;;;;5055136;28;20454;-82
2023/07/23 07:46:58;;;;;;;2.55;1.70;;;19.70;61.60;;;;;;5038635;28;20054;-81
2023/07/23 07:49:24;;;;;;;3.45;1.80;;;19.80;61.60;;;;;;5039657;28;20124;-80
2023/07/23 07:51:50;;;;;;;3.15;1.95;;;19.80;61.70;;;;;;5072844;28;20024;-82
2023/07/23 07:54:16;;;;;;;2.33;1.60;;;19.80;61.70;;;;;;5022311;28;20121;-82
2023/07/23 07:56:43;;;;;;;2.28;1.80;;;19.80;61.70;;;;;;5055015;28;20108;-80
2023/07/23 07:59:10;;;;;;;2.33;1.70;;;19.80;61.70;;;;;;5038385;28;20063;-80
2023/07/23 08:01:36;;;;;;;3.17;1.95;;;19.80;61.80;;;;;;5038785;28;20039;-81
2023/07/23 08:04:03;;;;;;;3.00;1.98;;;19.80;61.80;;;;;;5054557;28;20052;-83
2023/07/23 08:06:30;;;;;;;3.05;1.92;;;19.80;61.80;;;;;;5039192;28;20082;-85
2023/07/23 08:08:58;;;;;;;2.42;1.80;;;19.80;61.80;;;;;;5055203;28;20102;-80
2023/07/23 08:11:25;;;;;;;2.70;2.00;;;19.80;61.80;;;;;;5055628;28;20496;-82
2023/07/23 08:13:51;;;;;;;2.78;2.10;;;19.80;61.80;;;;;;5072631;28;20124;-81
2023/07/23 08:16:18;;;;;;;2.33;1.90;;;19.80;61.80;;;;;;5072831;28;20029;-80
2023/07/23 08:18:44;;;;;;;1.98;1.70;;;19.80;61.90;;;;;;5055861;28;20106;-84
2023/07/23 08:21:14;;;;;;;2.03;1.50;;;19.80;61.90;;;;;;5039246;28;20473;-81
2023/07/23 08:23:40;;;;;;;2.25;1.70;;;19.80;61.90;;;;;;5038316;28;20432;-84
2023/07/23 08:26:07;;;;;;;2.13;1.75;;;19.80;61.90;;;;;;5073439;28;20029;-81
2023/07/23 08:28:44;;;;;;;2.45;1.85;;;19.90;61.90;;;;;;5038174;28;20047;-79
2023/07/23 08:31:10;;;;;;;2.08;1.60;;;19.80;61.90;;;;;;5055756;28;20028;-81
2023/07/23 08:33:41;;;;;;;2.65;1.80;;;19.90;61.90;;;;;;5055111;28;20083;-81
2023/07/23 08:36:07;;;;;;;2.67;1.90;;;19.90;62.00;;;;;;5054452;28;20082;-82
2023/07/23 08:38:33;;;;;;;2.40;1.75;;;19.90;62.00;;;;;;5041331;28;20048;-86
2023/07/23 08:41:02;;;;;;;2.25;1.80;;;19.90;62.00;;;;;;5075395;28;20508;-81
2023/07/23 08:43:59;;;;;;;2.55;1.67;;;19.90;62.00;;;;;;5058514;28;20481;-78
2023/07/23 08:46:26;;;;;;;2.38;1.83;;;19.90;62.10;;;;;;5076750;28;20028;-80
2023/07/23 08:48:56;;;;;;;1.73;1.50;;;19.90;62.00;;;;;;5042014;28;20334;-80
2023/07/23 08:51:24;;;;;;;2.17;1.90;;;19.90;62.10;;;;;;5058339;28;20032;-79
2023/07/23 08:53:51;;;;;;;3.08;2.10;;;19.90;62.10;;;;;;5058000;28;20103;-81
2023/07/23 08:56:18;;;;;;;2.83;2.00;;;19.90;62.10;;;;;;5058436;28;20457;-81
2023/07/23 08:58:45;;;;;;;2.15;1.63;;;19.90;62.10;;;;;;5057843;28;20071;-80
2023/07/23 09:01:13;;;;;;;2.67;1.83;;;19.90;62.10;;;;;;5076034;28;20029;-85
2023/07/23 09:03:39;;;;;;;2.50;1.77;;;20.00;62.20;;;;;;5076048;28;20548;-80
2023/07/23 09:06:05;;;;;;;2.17;1.73;;;19.90;62.10;;;;;;5058539;28;20064;-83
2023/07/23 09:08:34;;;;;;;2.35;1.80;;;20.00;62.10;;;;;;5041642;28;20135;-81
2023/07/23 09:11:04;;;;;;;2.30;1.75;;;20.00;62.10;;;;;;5058571;28;20507;-80
2023/07/23 09:13:35;;;;;;;2.60;2.00;;;20.00;62.20;;;;;;5057693;28;20495;-82
2023/07/23 09:16:01;;;;;;;2.00;1.70;;;20.00;62.30;;;;;;5075492;28;20028;-81
2023/07/23 09:18:27;;;;;;;2.85;2.00;;;20.00;62.10;;;;;;5057564;28;20040;-79
2023/07/23 09:20:53;;;;;;;2.38;1.60;;;20.00;62.20;;;;;;5041226;28;20032;-79
2023/07/23 09:23:18;;;;;;;2.42;1.63;;;20.00;62.20;;;;;;5057677;28;20462;-78
2023/07/23 09:25:44;;;;;;;2.58;1.83;;;20.00;62.20;;;;;;5058160;28;20035;-82
2023/07/23 09:28:26;;;;;;;2.63;1.70;;;20.00;62.10;;;;;;5075319;28;20040;-80
2023/07/23 09:30:54;;;;;;;2.72;2.00;;;20.00;62.30;;;;;;5057703;28;20444;-81
2023/07/23 09:33:20;;;;;;;2.40;1.77;;;20.10;62.20;;;;;;5041383;28;20127;-82
2023/07/23 09:35:45;;;;;;;2.20;1.75;;;20.00;62.10;;;;;;5057447;28;20067;-80
2023/07/23 09:38:13;;;;;;;2.25;1.83;;;20.10;62.20;;;;;;5058330;28;20036;-82
2023/07/23 09:40:40;;;;;;;2.10;1.60;;;20.10;62.30;;;;;;5040746;28;20385;-79
2023/07/23 09:43:07;;;;;;;2.20;1.63;;;20.10;62.30;;;;;;5057189;28;20035;-84
2023/07/23 09:45:41;;;;;;;2.42;1.75;;;20.10;62.30;;;;;;5057252;28;20039;-82
2023/07/23 09:48:07;;;;;;;2.15;1.70;;;20.10;62.30;;;;;;5075305;28;20077;-81
2023/07/23 09:50:33;;;;;;;2.33;1.80;;;20.10;62.30;;;;;;5075546;28;20028;-86
2023/07/23 09:52:59;;;;;;;2.25;1.90;;;20.10;62.30;;;;;;5041159;28;20035;-81
2023/07/23 09:55:25;;;;;;;1.98;1.65;;;20.10;62.30;;;;;;5008088;28;20036;-81
2023/07/23 09:57:52;;;;;;;1.90;1.70;;;20.10;62.30;;;;;;5057023;28;20037;-82
2023/07/23 10:00:19;;;;;;;2.00;1.70;;;20.10;62.30;;;;;;5041319;28;20028;-81
2023/07/23 10:02:49;;;;;;;2.08;1.60;;;20.10;62.30;;;;;;5056782;28;20032;-81
2023/07/23 10:05:17;;;;;;;2.83;1.90;;;20.20;62.40;;;;;;5057058;28;20046;-82
2023/07/23 10:07:46;;;;;;;2.15;1.77;;;20.20;62.40;;;;;;5039909;28;20147;-82
2023/07/23 10:10:15;;;;;;;1.60;1.33;;;20.20;62.40;;;;;;5056730;28;20103;-79
2023/07/23 10:12:42;;;;;;;1.48;1.33;;;20.20;62.40;;;;;;5057010;28;20381;-81
2023/07/23 10:15:08;;;;;;;2.00;1.50;;;20.20;62.30;;;;;;5057161;28;20033;-80
2023/07/23 10:17:44;;;;;;;1.98;1.70;;;20.20;62.30;;;;;;5056630;28;20044;-82
2023/07/23 10:20:13;;;;;;;2.13;1.50;;;20.20;62.40;;;;;;5040049;28;20028;-82
2023/07/23 10:22:39;;;;;;;1.67;1.50;;;20.20;62.30;;;;;;5056389;28;20513;-79
2023/07/23 10:25:25;;;;;;;2.03;1.70;;;20.20;62.30;;;;;;5056594;28;20401;-80
2023/07/23 10:27:59;;;;;;;1.27;1.17;;;20.20;62.40;;;;;;5056387;28;20100;-80
2023/07/23 10:30:26;;;;;;;1.60;1.40;;;20.30;62.40;;;;;;5056707;28;20029;-79
2023/07/23 10:33:10;;;;;;;2.10;1.65;;;20.20;62.30;;;;;;5040065;28;20123;-80
2023/07/23 10:35:54;;;;;;;1.73;1.40;;;20.30;62.40;;;;;;5074025;28;20032;-79
2023/07/23 10:38:22;;;;;;;1.33;1.23;;;20.30;62.50;;;;;;5057178;28;20040;-78
2023/07/23 10:40:48;;;;;;;1.48;1.33;;;20.30;62.30;;;;;;5056997;28;20044;-80
2023/07/23 10:43:14;;;;;;;1.60;1.40;;;20.30;62.30;;;;;;5039938;28;20445;-82
2023/07/23 10:46:02;;;;;;;1.60;1.50;;;20.30;62.40;;;;;;5056630;28;20028;-82
2023/07/23 10:48:43;;;;;;;2.22;1.65;;;20.30;62.40;;;;;;5056693;28;20035;-84
2023/07/23 10:51:14;;;;;;;1.40;1.20;;;20.30;62.40;;;;;;5056413;28;20064;-81
2023/07/23 10:54:01;;;;;;;1.30;1.20;;;20.30;62.40;;;;;;5040010;28;20052;-81
2023/07/23 10:56:31;;;;;;;1.77;1.30;;;20.40;62.50;;;;;;5057864;28;20101;-83
2023/07/23 10:59:03;;;;;;;1.63;1.40;;;20.40;62.40;;;;;;5056850;28;20068;-84
2023/07/23 11:01:31;;;;;;;1.42;1.20;;;20.40;62.50;;;;;;5056333;28;20032;-83
2023/07/23 11:04:00;;;;;;;1.30;1.20;;;20.40;62.50;;;;;;5040426;28;20045;-83
2023/07/23 11:06:33;;;;;;;1.42;1.27;;;20.40;62.50;;;;;;5056140;28;20029;-82
2023/07/23 11:09:04;;;;;;;1.83;1.40;;;20.40;62.50;;;;;;5040094;28;20057;-83
2023/07/23 11:11:42;;;;;;;1.67;1.40;;;20.50;62.60;;;;;;5056781;28;20070;-82
2023/07/23 11:14:25;;;;;;;1.70;1.48;;;20.50;62.60;;;;;;5073599;28;20021;-81
2023/07/23 11:16:56;;;;;;;2.10;1.40;;;20.40;62.50;;;;;;5056697;28;20047;-87
2023/07/23 11:19:26;;;;;;;2.35;1.55;;;20.50;62.60;;;;;;5074006;28;20488;-83
2023/07/23 11:21:58;;;;;;;1.58;1.30;;;20.50;62.60;;;;;;5055950;28;20082;-82
2023/07/23 11:24:25;;;;;;;2.08;1.33;;;20.50;62.60;;;;;;5056245;28;20029;-82
2023/07/23 11:26:52;;;;;;;1.33;1.23;;;20.50;62.60;;;;;;5039532;28;20036;-82
2023/07/23 11:29:18;;;;;;;2.33;1.33;;;20.50;62.60;;;;;;5039327;28;20487;-82
2023/07/23 11:31:45;;;;;;;1.23;1.13;;;20.50;62.60;;;;;;5039261;28;20396;-81
2023/07/23 11:34:12;;;;;;;1.25;1.10;;;20.50;62.60;;;;;;5055745;28;20115;-84
2023/07/23 11:36:38;;;;;;;1.40;1.15;;;20.50;63.30;;;;;;5073629;28;20025;-82
2023/07/23 11:39:06;;;;;;;1.63;1.33;;;20.60;62.70;;;;;;5056296;28;20051;-84
2023/07/23 11:41:41;;;;;;;1.13;1.10;;;20.60;62.70;;;;;;5055423;28;20028;-83
2023/07/23 11:44:07;;;;;;;;;;;20.60;62.70;;;;;;5074369;28;20063;-83
2023/07/23 11:46:33;;;;;;;1.30;1.02;;;20.60;62.50;;;;;;5073621;28;19953;-83
2023/07/23 11:49:00;;;;;;;1.20;1.10;;;20.60;62.50;;;;;;5055540;28;20094;-83
2023/07/23 11:51:31;;;;;;;1.20;1.10;;;20.60;62.60;;;;;;5073393;28;20032;-83
2023/07/23 11:54:04;;;;;;;1.38;1.20;;;20.60;62.60;;;;;;5039189;28;20025;-83
2023/07/23 11:56:33;;;;;;;1.40;1.30;;;20.60;62.60;;;;;;5055554;28;20032;-83
2023/07/23 11:59:04;;;;;;;1.75;1.30;;;20.60;62.60;;;;;;5055553;28;20051;-83
2023/07/23 12:01:30;;;;;;;2.20;1.20;;;20.60;62.60;;;;;;5055624;28;20035;-83
2023/07/23 12:03:59;;;;;;;1.65;1.48;;;20.60;62.60;;;;;;5039246;28;20123;-82
2023/07/23 12:06:28;;;;;;;1.30;1.20;;;20.60;62.60;;;;;;5055939;28;20036;-82
2023/07/23 12:08:54;;;;;;;1.58;1.13;;;20.70;62.70;;;;;;5074343;28;20071;-82
2023/07/23 12:11:22;;;;;;;1.73;1.40;;;20.70;62.60;;;;;;5022866;28;20043;-82
2023/07/23 12:13:53;;;;;;;1.60;1.35;;;20.80;62.60;;;;;;5059973;28;20040;-84
2023/07/23 12:16:34;;;;;;;1.08;1.02;;;20.80;62.60;;;;;;5042892;28;20052;-85
2023/07/23 12:19:08;;;;;;;1.90;1.30;;;20.80;62.60;;;;;;5077241;28;20024;-83
2023/07/23 12:21:37;;;;;;;1.47;1.37;;;20.80;62.50;;;;;;5060283;28;20036;-83
2023/07/23 12:24:23;;;;;;;1.58;1.15;;;20.90;62.50;;;;;;5059126;28;20082;-83
2023/07/23 12:26:51;;;;;;;1.58;1.30;;;20.90;62.60;;;;;;5076419;28;20040;-82
2023/07/23 12:29:23;;;;;;;1.65;1.38;;;20.90;62.40;;;;;;5059431;28;20032;-82
2023/07/23 12:32:10;;;;;;;1.33;1.20;;;20.90;62.40;;;;;;5040220;28;20362;-81
2023/07/23 12:34:37;;;;;;;1.15;1.08;;;21.00;62.40;;;;;;5059146;28;20127;-81
2023/07/23 12:37:03;;;;;;;1.15;1.10;;;21.00;62.20;;;;;;5043034;28;20619;-82
2023/07/23 12:39:32;;;;;;;1.45;1.27;;;21.00;62.10;;;;;;5060054;28;20032;-86
2023/07/23 12:41:58;;;;;;;1.35;1.25;;;21.10;62.20;;;;;;5076648;28;20035;-82
2023/07/23 12:44:24;;;;;;;1.75;1.45;;;21.10;62.10;;;;;;5059140;28;20115;-81
2023/07/23 12:46:50;;;;;;;1.65;1.20;;;21.10;62.10;;;;;;5076789;28;20107;-84
2023/07/23 12:49:16;;;;;;;2.42;1.60;;;21.20;62.10;;;;;;5042319;28;20457;-82